Startpagina
METAR-TAF:

METAR-TAF

Vliegvelden :

Le Mans, Frankrijk

breedte: 47-56N, lengte: 000-12E, hoogte: 59 m

Actueel weer

Dit bericht is 27 minuten geleden gemaakt, om 02:00 UTC
Wind 4 kt uit het noordoosten
Temperatuur 0°C
Vochtigheid 93%
Druk 1023 hPa
Zicht: 5000 m
nevel

METAR: LFRM 240200Z AUTO 04004KT 5000 BR NSC M00/M01 Q1023

Tijdstip: 03:27 (02:27 UTC)

Verwachting

Dit bericht is 15 uur en het 27 minuten geleden gemaakt, om 11:00 UTC
Verwachting geldig van 23 om 12 UTC tot 24 om 12 UTC
Wind 8 kt uit het oostnoordoosten
Zicht 10 km of meer
geen wolken onder 1500 m en geen cumulonimbus
Wijzigt naar
van 24 om 00 UTC tot 24 om 02 UTC
Zicht: 4000 m
Gebroken wolken op 700 ft
nevel
Tijdelijke
van 24 om 02 UTC tot 24 om 12 UTC
Zicht: 1500 m
Geheel bewolkt op 200 ft
nevel
Kans 30% :
Tijdelijke
van 24 om 06 UTC tot 24 om 09 UTC
Zicht: 0600 m
mist

TAF: LFRM 231100Z 2312/2412 06008KT CAVOK BECMG 2400/2402 4000 BR BKN007 TEMPO 2402/2412 1500 BR OVC002 PROB30 TEMPO 2406/2409 0600 FG VV///

Waarnemingen en weersverwachtingen van meer dan 4000 vliegvelden (METAR en TAF).

De beschikbare stations zijn de gele en rode punten op de kaart.

Ga met uw muis naar het station om de naam te zien.

Klik dan om waarnemingen en weersverwachtingen te zien.

kaart wijzigen: klik op de groene knoppen met een zwart kruis om in te zoomen, op de groene knop met een streepje om uit te zoomen of op de groene pijlen voor aangrenzende kaarten.


METAR-TAF: